createdAt,value
2018-04-24T00:01:52.987Z,6.27
2018-04-24T00:04:22.732Z,6.40
2018-04-24T00:06:51.033Z,7.00
2018-04-24T00:09:20.182Z,7.00
2018-04-24T00:11:49.411Z,7.40
2018-04-24T00:14:18.899Z,6.60
2018-04-24T00:16:47.795Z,6.80
2018-04-24T00:19:16.076Z,6.80
2018-04-24T00:21:44.368Z,6.37
2018-04-24T00:24:13.271Z,7.20
2018-04-24T00:26:42.216Z,7.90
2018-04-24T00:29:10.527Z,8.20
2018-04-24T00:31:39.637Z,7.93
2018-04-24T00:34:08.319Z,7.80
2018-04-24T00:36:36.663Z,8.20
2018-04-24T00:39:04.950Z,7.70
2018-04-24T00:41:34.967Z,7.47
2018-04-24T00:44:03.252Z,7.90
2018-04-24T00:46:31.703Z,8.33
2018-04-24T00:49:00.095Z,8.60
2018-04-24T00:51:28.370Z,7.63
2018-04-24T00:53:56.734Z,8.47
2018-04-24T00:56:25.778Z,8.67
2018-04-24T00:58:54.069Z,8.70
2018-04-24T01:01:22.413Z,8.57
2018-04-24T01:03:52.949Z,9.23
2018-04-24T01:06:21.288Z,8.00
2018-04-24T01:08:50.408Z,7.83
2018-04-24T01:11:18.791Z,8.00
2018-04-24T01:13:47.170Z,7.47
2018-04-24T01:16:15.464Z,8.23
2018-04-24T01:18:43.759Z,7.97
2018-04-24T01:21:12.062Z,7.87
2018-04-24T01:23:40.456Z,7.73
2018-04-24T01:26:10.419Z,7.37
2018-04-24T01:28:38.876Z,7.40
2018-04-24T01:31:07.152Z,7.40
2018-04-24T01:33:36.270Z,9.07
2018-04-24T01:36:06.400Z,8.50
2018-04-24T01:38:34.987Z,7.23
2018-04-24T01:41:03.940Z,9.13
2018-04-24T01:43:33.298Z,7.83
2018-04-24T01:46:01.588Z,8.23
2018-04-24T01:48:30.478Z,8.60
2018-04-24T01:50:59.019Z,10.20
2018-04-24T01:53:28.580Z,9.00
2018-04-24T01:55:58.140Z,9.50
2018-04-24T01:58:26.457Z,8.20
2018-04-24T02:00:54.739Z,9.67
2018-04-24T02:03:23.034Z,8.90
2018-04-24T02:05:52.085Z,9.67
2018-04-24T02:08:20.559Z,9.33
2018-04-24T02:10:49.914Z,9.30
2018-04-24T02:13:19.053Z,9.50
2018-04-24T02:15:47.402Z,9.53
2018-04-24T02:18:16.935Z,9.43
2018-04-24T02:20:45.206Z,9.73
2018-04-24T02:23:13.584Z,9.80
2018-04-24T02:25:42.706Z,8.87
2018-04-24T02:28:10.997Z,8.13
2018-04-24T02:30:39.344Z,10.13
2018-04-24T02:33:07.751Z,9.53
2018-04-24T02:35:36.087Z,10.13
2018-04-24T02:38:04.459Z,10.20
2018-04-24T02:40:33.514Z,8.73
2018-04-24T02:43:01.796Z,10.00
2018-04-24T02:45:31.161Z,10.07
2018-04-24T02:47:59.902Z,8.73
2018-04-24T02:50:28.648Z,9.13
2018-04-24T02:52:57.226Z,9.80
2018-04-24T02:55:25.656Z,9.50
2018-04-24T02:57:53.934Z,8.90
2018-04-24T03:00:22.399Z,8.20
2018-04-24T03:02:51.099Z,8.90
2018-04-24T03:05:19.462Z,8.63
2018-04-24T03:07:47.755Z,8.40
2018-04-24T03:10:16.094Z,7.67
2018-04-24T03:12:45.095Z,7.60
2018-04-24T03:15:13.374Z,7.50
2018-04-24T03:17:42.423Z,7.30
2018-04-24T03:20:11.487Z,7.00
2018-04-24T03:22:39.770Z,8.00
2018-04-24T03:25:08.082Z,8.37
2018-04-24T03:27:36.358Z,7.33
2018-04-24T03:30:05.399Z,6.67
2018-04-24T03:32:34.409Z,7.57
2018-04-24T03:35:02.674Z,7.30
2018-04-24T03:37:30.952Z,7.77
2018-04-24T03:39:59.327Z,7.77
2018-04-24T03:42:27.611Z,8.63
2018-04-24T03:44:55.910Z,9.07
2018-04-24T03:47:24.357Z,7.23
2018-04-24T03:49:52.622Z,7.07
2018-04-24T03:52:21.140Z,7.77
2018-04-24T03:54:49.899Z,9.50
2018-04-24T03:57:18.228Z,7.83
2018-04-24T03:59:46.479Z,8.30
2018-04-24T04:02:14.759Z,8.80
2018-04-24T04:04:43.058Z,8.47
2018-04-24T04:07:11.363Z,7.63
2018-04-24T04:09:41.124Z,8.20
2018-04-24T04:12:09.406Z,7.40
2018-04-24T04:14:38.374Z,8.90
2018-04-24T04:17:24.470Z,8.23
2018-04-24T04:23:39.362Z,8.70
2018-04-24T04:26:08.324Z,7.73
2018-04-24T04:28:37.863Z,9.20
2018-04-24T04:31:06.147Z,8.50
2018-04-24T04:33:34.522Z,9.57
2018-04-24T04:36:03.991Z,9.33
2018-04-24T04:38:33.073Z,8.93
2018-04-24T04:41:01.881Z,8.90
2018-04-24T04:43:31.727Z,8.97
2018-04-24T04:46:00.013Z,9.03
2018-04-24T04:48:28.306Z,9.00
2018-04-24T04:50:56.590Z,10.43
2018-04-24T04:53:25.262Z,10.33
2018-04-24T04:55:53.555Z,10.13
2018-04-24T04:58:21.907Z,8.83
2018-04-24T05:00:50.391Z,9.40
2018-04-24T05:03:18.681Z,10.33
2018-04-24T05:05:47.626Z,11.20
2018-04-24T05:08:16.854Z,10.30
2018-04-24T05:10:45.919Z,11.13
2018-04-24T05:13:16.735Z,11.17
2018-04-24T05:15:45.074Z,9.77
2018-04-24T05:18:13.354Z,11.07
2018-04-24T05:20:41.650Z,10.60
2018-04-24T05:23:10.139Z,10.07
2018-04-24T05:25:39.142Z,11.23
2018-04-24T05:28:07.448Z,10.97
2018-04-24T05:30:36.590Z,10.83
2018-04-24T05:33:06.406Z,12.10
2018-04-24T05:35:35.323Z,10.70
2018-04-24T05:38:03.778Z,11.77
2018-04-24T05:40:32.170Z,10.87
2018-04-24T05:43:00.446Z,12.53
2018-04-24T05:45:29.253Z,13.67
2018-04-24T05:47:57.891Z,12.63
2018-04-24T05:50:26.171Z,12.60
2018-04-24T05:52:54.464Z,13.13
2018-04-24T05:55:22.762Z,13.13
2018-04-24T05:57:52.098Z,12.77
2018-04-24T06:00:20.378Z,13.13
2018-04-24T06:02:49.450Z,12.70
2018-04-24T06:05:17.802Z,12.53
2018-04-24T06:07:46.388Z,13.00
2018-04-24T06:10:15.399Z,14.17
2018-04-24T06:12:43.722Z,13.60
2018-04-24T06:15:12.226Z,13.20
2018-04-24T06:17:41.387Z,10.93
2018-04-24T06:20:11.172Z,13.23
2018-04-24T06:22:39.443Z,12.40
2018-04-24T06:25:07.719Z,13.30
2018-04-24T06:27:36.652Z,14.00
2018-04-24T06:30:05.795Z,14.17
2018-04-24T06:32:34.098Z,13.10
2018-04-24T06:35:02.426Z,14.60
2018-04-24T06:37:31.047Z,13.03
2018-04-24T06:39:59.456Z,13.50
2018-04-24T06:42:28.476Z,13.20
2018-04-24T06:44:57.519Z,12.57
2018-04-24T06:47:26.187Z,11.57
2018-04-24T06:49:54.526Z,13.30
2018-04-24T06:52:23.570Z,13.90
2018-04-24T06:54:51.951Z,13.03
2018-04-24T06:57:20.248Z,14.67
2018-04-24T06:59:49.222Z,13.63
2018-04-24T07:02:17.507Z,13.73
2018-04-24T07:04:45.891Z,13.57
2018-04-24T07:07:14.955Z,12.93
2018-04-24T07:09:43.241Z,14.27
2018-04-24T07:12:11.603Z,13.33
2018-04-24T07:14:39.878Z,13.47
2018-04-24T07:17:08.163Z,14.13
2018-04-24T07:19:36.494Z,14.23
2018-04-24T07:22:04.774Z,13.93
2018-04-24T07:24:33.863Z,14.70
2018-04-24T07:27:02.596Z,14.67
2018-04-24T07:29:30.869Z,13.60
2018-04-24T07:32:00.016Z,15.10
2018-04-24T07:34:28.495Z,14.70
2018-04-24T07:36:57.591Z,15.70
2018-04-24T07:39:25.889Z,16.03
2018-04-24T07:41:55.710Z,15.73
2018-04-24T07:44:24.832Z,15.80
2018-04-24T07:46:53.929Z,15.43
2018-04-24T07:49:22.750Z,15.33
2018-04-24T07:51:52.427Z,16.30
2018-04-24T07:54:21.483Z,16.20
2018-04-24T07:56:49.805Z,15.87
2018-04-24T07:59:19.280Z,17.60
2018-04-24T08:01:47.714Z,17.00
2018-04-24T08:04:16.103Z,15.73
2018-04-24T08:06:44.421Z,16.30
2018-04-24T08:09:12.751Z,16.23
2018-04-24T08:11:41.031Z,18.60
2018-04-24T08:14:09.888Z,17.53
2018-04-24T08:16:38.968Z,17.23
2018-04-24T08:19:07.277Z,17.33
2018-04-24T08:21:36.317Z,17.37
2018-04-24T08:24:05.799Z,15.93
2018-04-24T08:26:34.084Z,17.40
2018-04-24T08:29:02.370Z,16.93
2018-04-24T08:31:30.778Z,17.47
2018-04-24T08:33:59.447Z,16.93
2018-04-24T08:36:27.731Z,19.27
2018-04-24T08:38:56.128Z,17.07
2018-04-24T08:41:24.398Z,21.10
2018-04-24T08:43:52.840Z,17.97
2018-04-24T08:46:21.235Z,17.77
2018-04-24T08:48:49.715Z,17.70
2018-04-24T08:51:18.056Z,17.93
2018-04-24T08:53:47.121Z,18.80
2018-04-24T08:56:15.432Z,18.00
2018-04-24T08:58:45.188Z,19.67
2018-04-24T09:01:13.473Z,23.20
2018-04-24T09:03:41.841Z,22.70
2018-04-24T09:06:10.635Z,23.20
2018-04-24T09:08:39.574Z,22.33
2018-04-24T09:11:07.903Z,21.37
2018-04-24T09:13:36.605Z,22.27
2018-04-24T09:16:04.896Z,21.60
2018-04-24T09:18:33.212Z,22.57
2018-04-24T09:21:01.675Z,22.07
2018-04-24T09:23:29.958Z,20.10
2018-04-24T09:25:59.032Z,19.33
2018-04-24T09:28:27.357Z,19.50
2018-04-24T09:30:55.895Z,17.87
2018-04-24T09:33:24.967Z,18.10
2018-04-24T09:35:53.178Z,17.97
2018-04-24T09:38:22.239Z,18.23
2018-04-24T09:40:50.727Z,17.67
2018-04-24T09:43:19.091Z,19.20
2018-04-24T09:45:47.386Z,18.37
2018-04-24T09:48:15.671Z,16.40
2018-04-24T09:50:44.103Z,17.33
2018-04-24T09:53:12.826Z,16.80
2018-04-24T09:55:41.107Z,17.40
2018-04-24T09:58:09.693Z,17.27
2018-04-24T10:00:38.290Z,18.40
2018-04-24T10:03:06.994Z,15.37
2018-04-24T10:05:35.298Z,16.20
2018-04-24T10:08:03.620Z,16.30
2018-04-24T10:10:31.902Z,16.97
2018-04-24T10:13:00.268Z,16.67
2018-04-24T10:15:29.263Z,16.63
2018-04-24T10:17:57.953Z,16.43
2018-04-24T10:20:26.235Z,17.50
2018-04-24T10:22:54.560Z,18.13
2018-04-24T10:25:24.088Z,16.03
2018-04-24T10:27:52.364Z,17.97
2018-04-24T10:30:21.019Z,18.77
2018-04-24T10:32:50.837Z,18.73
2018-04-24T10:35:20.663Z,17.57
2018-04-24T10:37:49.713Z,19.53
2018-04-24T10:40:18.771Z,16.50
2018-04-24T10:42:47.163Z,18.00
2018-04-24T10:45:15.467Z,18.60
2018-04-24T10:47:43.742Z,16.70
2018-04-24T10:50:12.751Z,19.10
2018-04-24T10:52:41.091Z,18.10
2018-04-24T10:55:09.380Z,18.93
2018-04-24T10:57:37.677Z,19.77
2018-04-24T11:00:06.111Z,18.93
2018-04-24T11:02:34.414Z,21.93
2018-04-24T11:05:03.705Z,19.80
2018-04-24T11:07:32.185Z,23.23
2018-04-24T11:10:00.659Z,22.50
2018-04-24T11:12:29.091Z,23.60
2018-04-24T11:14:57.450Z,25.43
2018-04-24T11:17:26.553Z,26.20
2018-04-24T11:19:55.214Z,27.60
2018-04-24T11:22:23.660Z,29.37
2018-04-24T11:24:52.861Z,29.87
2018-04-24T11:27:22.040Z,26.93
2018-04-24T11:29:50.355Z,24.83
2018-04-24T11:32:18.639Z,18.60
2018-04-24T11:34:46.927Z,19.17
2018-04-24T11:37:15.258Z,17.13
2018-04-24T11:39:45.232Z,17.03
2018-04-24T11:42:13.523Z,17.07
2018-04-24T11:44:41.904Z,16.80
2018-04-24T11:47:10.219Z,15.50
2018-04-24T11:49:38.615Z,16.60
2018-04-24T11:52:08.820Z,15.87
2018-04-24T11:54:37.195Z,18.40
2018-04-24T11:57:05.982Z,15.93
2018-04-24T11:59:35.470Z,16.00
2018-04-24T12:02:04.724Z,13.50
2018-04-24T12:04:34.210Z,12.73
2018-04-24T12:07:03.251Z,11.23
2018-04-24T12:09:31.785Z,11.83
2018-04-24T12:12:00.062Z,11.40
2018-04-24T12:14:29.938Z,11.20
2018-04-24T12:16:58.318Z,11.80
2018-04-24T12:19:27.443Z,9.70
2018-04-24T12:21:55.806Z,10.03
2018-04-24T12:24:24.317Z,11.07
2018-04-24T12:26:53.787Z,10.20
2018-04-24T12:29:23.597Z,8.00
2018-04-24T12:31:51.871Z,7.80
2018-04-24T12:34:20.377Z,8.40
2018-04-24T12:36:49.114Z,7.27
2018-04-24T12:39:18.104Z,9.90
2018-04-24T12:41:47.939Z,6.80
2018-04-24T12:44:17.028Z,4.80
2018-04-24T12:46:46.813Z,4.40
2018-04-24T12:49:16.791Z,4.80
2018-04-24T12:51:45.120Z,4.00
2018-04-24T12:54:13.345Z,3.57
2018-04-24T12:56:42.718Z,2.57
2018-04-24T12:59:11.920Z,3.07
2018-04-24T13:01:40.739Z,3.37
2018-04-24T13:04:09.531Z,3.67
2018-04-24T13:06:38.557Z,3.40
2018-04-24T13:09:07.610Z,3.53
2018-04-24T13:11:36.284Z,3.53
2018-04-24T13:14:04.566Z,4.07
2018-04-24T13:16:32.850Z,4.30
2018-04-24T13:19:01.192Z,3.60
2018-04-24T13:21:30.230Z,3.30
2018-04-24T13:23:58.601Z,5.10
2018-04-24T13:26:27.911Z,3.03
2018-04-24T13:28:56.208Z,3.00
2018-04-24T13:31:25.183Z,3.43
2018-04-24T13:33:53.560Z,3.00
2018-04-24T13:36:21.874Z,3.70
2018-04-24T13:38:50.682Z,3.17
2018-04-24T13:41:19.745Z,2.40
2018-04-24T13:43:48.582Z,3.50
2018-04-24T13:46:18.421Z,3.47
2018-04-24T13:48:49.486Z,3.60
2018-04-24T13:51:18.034Z,4.40
2018-04-24T13:53:46.462Z,4.07
2018-04-24T13:56:15.432Z,3.80
2018-04-24T13:58:44.128Z,4.17
2018-04-24T14:01:14.850Z,4.00
2018-04-24T14:03:44.049Z,4.30
2018-04-24T14:06:12.915Z,4.77
2018-04-24T14:08:41.524Z,4.00
2018-04-24T14:11:09.806Z,3.90
2018-04-24T14:13:38.106Z,4.03
2018-04-24T14:16:07.423Z,4.17
2018-04-24T14:18:35.948Z,4.87
2018-04-24T14:21:04.233Z,3.30
2018-04-24T14:23:33.358Z,4.27
2018-04-24T14:26:02.010Z,4.33
2018-04-24T14:28:30.558Z,3.70
2018-04-24T14:30:59.893Z,3.60
2018-04-24T14:33:28.343Z,4.37
2018-04-24T14:35:57.647Z,4.03
2018-04-24T14:38:26.694Z,3.80
2018-04-24T14:40:56.641Z,3.93
2018-04-24T14:43:25.752Z,3.87
2018-04-24T14:45:55.601Z,3.47
2018-04-24T14:48:24.333Z,3.73
2018-04-24T14:50:52.963Z,3.90
2018-04-24T14:53:22.367Z,2.73
2018-04-24T14:55:50.736Z,4.40
2018-04-24T14:58:19.890Z,3.30
2018-04-24T15:00:48.171Z,3.17
2018-04-24T15:03:16.763Z,3.10
2018-04-24T15:05:45.676Z,3.30
2018-04-24T15:08:15.041Z,3.10
2018-04-24T15:10:43.326Z,3.00
2018-04-24T15:13:12.307Z,2.90
2018-04-24T15:15:50.077Z,3.23
2018-04-24T15:18:18.798Z,3.37
2018-04-24T15:20:47.100Z,2.77
2018-04-24T15:23:15.371Z,3.43
2018-04-24T15:25:43.714Z,2.73
2018-04-24T15:28:12.052Z,3.97
2018-04-24T15:30:40.547Z,2.83
2018-04-24T15:33:09.615Z,3.17
2018-04-24T15:35:38.784Z,2.80
2018-04-24T15:38:08.177Z,2.90
2018-04-24T15:40:38.894Z,2.73
2018-04-24T15:43:07.190Z,2.47
2018-04-24T15:45:35.570Z,3.43
2018-04-24T15:48:03.919Z,3.83
2018-04-24T15:50:35.523Z,3.33
2018-04-24T15:53:03.939Z,3.67
2018-04-24T15:55:32.218Z,4.17
2018-04-24T15:58:01.420Z,3.13
2018-04-24T16:00:32.660Z,3.50
2018-04-24T16:03:00.963Z,4.00
2018-04-24T16:05:29.585Z,4.00
2018-04-24T16:07:57.866Z,3.70
2018-04-24T16:10:26.623Z,5.13
2018-04-24T16:12:54.925Z,4.00
2018-04-24T16:15:24.015Z,4.53
2018-04-24T16:17:52.309Z,4.80
2018-04-24T16:20:20.766Z,4.27
2018-04-24T16:22:49.043Z,5.27
2018-04-24T16:25:17.589Z,5.63
2018-04-24T16:27:46.683Z,4.73
2018-04-24T16:30:14.971Z,4.60
2018-04-24T16:32:44.008Z,4.70
2018-04-24T16:35:12.395Z,5.20
2018-04-24T16:37:40.663Z,5.60
2018-04-24T16:40:08.942Z,4.40
2018-04-24T16:42:37.608Z,6.17
2018-04-24T16:45:05.888Z,4.20
2018-04-24T16:47:34.927Z,4.57
2018-04-24T16:50:03.204Z,3.83
2018-04-24T16:52:31.484Z,5.27
2018-04-24T16:54:59.783Z,4.27
2018-04-24T16:57:28.071Z,5.10
2018-04-24T16:59:57.227Z,4.00
2018-04-24T17:02:25.524Z,4.20
2018-04-24T17:04:54.611Z,3.93
2018-04-24T17:07:23.007Z,4.60
2018-04-24T17:09:51.878Z,2.73
2018-04-24T17:12:20.150Z,4.83
2018-04-24T17:14:48.511Z,3.47
2018-04-24T17:17:16.803Z,3.90
2018-04-24T17:19:45.111Z,3.80
2018-04-24T17:22:14.052Z,3.90
2018-04-24T17:24:42.320Z,3.40
2018-04-24T17:27:10.694Z,3.17
2018-04-24T17:29:38.971Z,3.57
2018-04-24T17:32:07.338Z,3.80
2018-04-24T17:34:36.416Z,4.80
2018-04-24T17:37:05.238Z,2.97
2018-04-24T17:39:33.524Z,3.33
2018-04-24T17:42:01.947Z,3.57
2018-04-24T17:44:30.681Z,3.33
2018-04-24T17:46:59.702Z,3.33
2018-04-24T17:49:28.217Z,4.43
2018-04-24T17:51:57.494Z,2.80
2018-04-24T17:54:26.746Z,4.40
2018-04-24T17:56:55.810Z,3.07
2018-04-24T17:59:24.278Z,3.50
2018-04-24T18:01:52.634Z,3.40
2018-04-24T18:04:20.907Z,3.47
2018-04-24T18:06:49.579Z,3.40
2018-04-24T18:09:18.640Z,3.10
2018-04-24T18:11:46.912Z,3.73
2018-04-24T18:14:16.095Z,3.63
2018-04-24T18:16:44.604Z,4.00
2018-04-24T18:19:13.866Z,3.90
2018-04-24T18:21:42.470Z,3.13
2018-04-24T18:24:10.867Z,4.47
2018-04-24T18:26:39.162Z,3.80
2018-04-24T18:29:08.235Z,3.60
2018-04-24T18:31:36.934Z,3.90
2018-04-24T18:34:05.658Z,3.90
2018-04-24T18:36:34.015Z,3.00
2018-04-24T18:39:03.290Z,3.40
2018-04-24T18:41:32.287Z,3.80
2018-04-24T18:44:00.978Z,5.83
2018-04-24T18:46:30.125Z,3.70
2018-04-24T18:48:58.750Z,3.93
2018-04-24T18:51:27.528Z,3.50
2018-04-24T18:53:55.902Z,3.93
2018-04-24T18:56:24.306Z,4.40
2018-04-24T18:58:52.587Z,3.90
2018-04-24T19:01:21.284Z,4.27
2018-04-24T19:03:50.501Z,4.57
2018-04-24T19:06:18.978Z,3.10
2018-04-24T19:08:49.577Z,4.90
2018-04-24T19:11:17.859Z,3.87
2018-04-24T19:13:47.094Z,4.27
2018-04-24T19:16:16.166Z,3.57
2018-04-24T19:18:50.166Z,4.30
2018-04-24T19:21:18.509Z,3.83
2018-04-24T19:23:46.933Z,4.37
2018-04-24T19:26:15.226Z,4.63
2018-04-24T19:28:46.155Z,4.27
2018-04-24T19:34:18.375Z,4.67
2018-04-24T19:36:47.632Z,5.20
2018-04-24T19:39:23.062Z,5.20
2018-04-24T19:41:51.403Z,4.00
2018-04-24T19:44:20.450Z,4.87
2018-04-24T19:46:49.016Z,5.30
2018-04-24T19:49:22.908Z,4.90
2018-04-24T19:51:51.210Z,4.67
2018-04-24T19:54:19.490Z,5.53
2018-04-24T19:56:47.861Z,4.90
2018-04-24T19:59:16.196Z,5.10
2018-04-24T20:01:45.252Z,6.37
2018-04-24T20:04:13.518Z,6.23
2018-04-24T20:06:42.480Z,6.73
2018-04-24T20:09:11.531Z,6.37
2018-04-24T20:11:39.821Z,4.73
2018-04-24T20:14:11.376Z,5.50
2018-04-24T20:16:39.644Z,4.60
2018-04-24T20:19:08.007Z,5.30
2018-04-24T20:21:36.389Z,5.57
2018-04-24T20:24:04.668Z,6.27
2018-04-24T20:26:32.982Z,5.50
2018-04-24T20:29:03.513Z,6.30
2018-04-24T20:31:33.872Z,4.97
2018-04-24T20:34:02.144Z,4.40
2018-04-24T20:36:31.268Z,4.93
2018-04-24T20:38:59.596Z,6.60
2018-04-24T20:41:28.648Z,4.47
2018-04-24T20:43:57.675Z,6.27
2018-04-24T20:46:26.015Z,5.57
2018-04-24T20:48:54.853Z,5.23
2018-04-24T20:51:24.100Z,5.17
2018-04-24T20:53:52.415Z,6.10
2018-04-24T20:56:21.000Z,4.60
2018-04-24T20:58:49.310Z,5.87
2018-04-24T21:01:17.605Z,5.00
2018-04-24T21:03:46.150Z,4.30
2018-04-24T21:06:15.104Z,6.47
2018-04-24T21:08:44.200Z,5.00
2018-04-24T21:11:12.495Z,5.23
2018-04-24T21:13:41.270Z,5.30
2018-04-24T21:16:09.625Z,5.40
2018-04-24T21:18:37.875Z,5.47
2018-04-24T21:21:07.016Z,5.20
2018-04-24T21:23:36.505Z,5.30
2018-04-24T21:26:04.920Z,6.27
2018-04-24T21:28:33.238Z,5.50
2018-04-24T21:31:02.722Z,5.20
2018-04-24T21:33:31.060Z,4.90
2018-04-24T21:35:59.447Z,4.63
2018-04-24T21:38:27.752Z,5.93
2018-04-24T21:40:56.027Z,4.80
2018-04-24T21:43:24.846Z,4.30
2018-04-24T21:45:54.082Z,5.13
2018-04-24T21:48:22.786Z,4.60
2018-04-24T21:50:51.886Z,6.20
2018-04-24T21:53:20.550Z,6.13
2018-04-24T21:55:49.515Z,6.00
2018-04-24T21:58:18.894Z,7.03
2018-04-24T22:00:47.866Z,5.87
2018-04-24T22:03:17.209Z,7.80
2018-04-24T22:05:46.270Z,6.53
2018-04-24T22:08:14.547Z,6.80
2018-04-24T22:10:42.814Z,6.53
2018-04-24T22:13:11.122Z,6.93
2018-04-24T22:15:39.491Z,6.47
2018-04-24T22:18:07.776Z,5.90
2018-04-24T22:20:36.122Z,6.67
2018-04-24T22:23:04.386Z,6.80
2018-04-24T22:25:33.270Z,7.73
2018-04-24T22:28:02.392Z,6.33
2018-04-24T22:30:32.084Z,6.47
2018-04-24T22:33:00.388Z,6.53
2018-04-24T22:35:29.681Z,5.93
2018-04-24T22:37:57.953Z,6.57
2018-04-24T22:40:26.299Z,5.73
2018-04-24T22:42:54.541Z,6.50
2018-04-24T22:45:23.254Z,7.80
2018-04-24T22:47:52.385Z,6.13
2018-04-24T22:50:20.770Z,7.67
2018-04-24T22:52:49.058Z,7.90
2018-04-24T22:55:18.183Z,7.70
2018-04-24T22:57:47.447Z,8.80
2018-04-24T23:00:16.484Z,9.80
2018-04-24T23:02:44.839Z,9.90
2018-04-24T23:05:14.026Z,10.50
2018-04-24T23:07:43.289Z,8.30
2018-04-24T23:10:11.614Z,10.87
2018-04-24T23:12:57.743Z,9.50
2018-04-24T23:15:44.014Z,10.73
2018-04-24T23:18:29.923Z,8.30
2018-04-24T23:20:58.010Z,8.93
2018-04-24T23:23:26.486Z,9.07
2018-04-24T23:25:55.511Z,9.03
2018-04-24T23:28:25.178Z,9.60
2018-04-24T23:30:53.490Z,8.10
2018-04-24T23:33:22.527Z,9.67
2018-04-24T23:36:01.047Z,8.80
2018-04-24T23:38:30.055Z,9.40
2018-04-24T23:40:58.779Z,10.33
2018-04-24T23:43:29.111Z,9.10
2018-04-24T23:45:59.074Z,8.90
2018-04-24T23:48:27.571Z,8.30
2018-04-24T23:50:56.748Z,8.53
2018-04-24T23:53:25.027Z,8.13
2018-04-24T23:55:53.414Z,9.20
2018-04-24T23:58:21.718Z,9.00
